sensor_id;sensor_type;location;lat;lon;timestamp;temperature;humidity
39325;DHT22;25037;49.488;9.900;2022-08-06T00:00:46;22.00;48.80
39325;DHT22;25037;49.488;9.900;2022-08-06T00:03:11;22.00;48.80
39325;DHT22;25037;49.488;9.900;2022-08-06T00:05:37;22.00;48.90
39325;DHT22;25037;49.488;9.900;2022-08-06T00:08:03;21.90;48.90
39325;DHT22;25037;49.488;9.900;2022-08-06T00:10:29;21.90;48.90
39325;DHT22;25037;49.488;9.900;2022-08-06T00:12:54;21.90;49.00
39325;DHT22;25037;49.488;9.900;2022-08-06T00:15:20;21.90;49.00
39325;DHT22;25037;49.488;9.900;2022-08-06T00:17:46;21.90;49.10
39325;DHT22;25037;49.488;9.900;2022-08-06T00:20:13;21.80;49.20
39325;DHT22;25037;49.488;9.900;2022-08-06T00:22:39;21.70;49.30
39325;DHT22;25037;49.488;9.900;2022-08-06T00:25:05;21.70;49.50
39325;DHT22;25037;49.488;9.900;2022-08-06T00:27:33;21.60;49.60
39325;DHT22;25037;49.488;9.900;2022-08-06T00:29:59;21.50;49.70
39325;DHT22;25037;49.488;9.900;2022-08-06T00:32:25;21.50;49.90
39325;DHT22;25037;49.488;9.900;2022-08-06T00:34:50;21.40;50.00
39325;DHT22;25037;49.488;9.900;2022-08-06T00:37:16;21.50;50.10
39325;DHT22;25037;49.488;9.900;2022-08-06T00:39:41;21.40;50.10
39325;DHT22;25037;49.488;9.900;2022-08-06T00:42:07;21.50;50.20
39325;DHT22;25037;49.488;9.900;2022-08-06T00:44:33;21.40;50.20
39325;DHT22;25037;49.488;9.900;2022-08-06T00:46:59;21.50;50.30
39325;DHT22;25037;49.488;9.900;2022-08-06T00:49:25;21.40;50.30
39325;DHT22;25037;49.488;9.900;2022-08-06T00:51:50;21.40;50.30
39325;DHT22;25037;49.488;9.900;2022-08-06T00:54:16;21.40;50.40
39325;DHT22;25037;49.488;9.900;2022-08-06T00:56:42;21.30;50.50
39325;DHT22;25037;49.488;9.900;2022-08-06T00:59:07;21.30;50.50
39325;DHT22;25037;49.488;9.900;2022-08-06T01:01:34;21.30;50.50
39325;DHT22;25037;49.488;9.900;2022-08-06T01:03:59;21.30;50.50
39325;DHT22;25037;49.488;9.900;2022-08-06T01:06:25;21.30;50.60
39325;DHT22;25037;49.488;9.900;2022-08-06T01:08:50;21.30;50.60
39325;DHT22;25037;49.488;9.900;2022-08-06T01:11:16;21.30;50.50
39325;DHT22;25037;49.488;9.900;2022-08-06T01:13:42;21.30;50.50
39325;DHT22;25037;49.488;9.900;2022-08-06T01:16:25;21.30;50.60
39325;DHT22;25037;49.488;9.900;2022-08-06T01:30:19;21.30;50.60
39325;DHT22;25037;49.488;9.900;2022-08-06T01:33:01;21.30;50.80
39325;DHT22;25037;49.488;9.900;2022-08-06T01:35:30;21.30;50.80
39325;DHT22;25037;49.488;9.900;2022-08-06T01:38:05;21.20;50.80
39325;DHT22;25037;49.488;9.900;2022-08-06T01:40:35;21.20;50.90
39325;DHT22;25037;49.488;9.900;2022-08-06T01:43:03;21.10;50.90
39325;DHT22;25037;49.488;9.900;2022-08-06T01:45:32;21.10;50.90
39325;DHT22;25037;49.488;9.900;2022-08-06T01:48:02;21.10;50.90
39325;DHT22;25037;49.488;9.900;2022-08-06T01:50:33;21.10;51.00
39325;DHT22;25037;49.488;9.900;2022-08-06T01:53:02;21.00;51.10
39325;DHT22;25037;49.488;9.900;2022-08-06T01:55:33;21.00;51.20
39325;DHT22;25037;49.488;9.900;2022-08-06T01:58:01;21.00;51.20
39325;DHT22;25037;49.488;9.900;2022-08-06T02:00:28;21.00;51.30
39325;DHT22;25037;49.488;9.900;2022-08-06T02:02:57;21.00;51.30
39325;DHT22;25037;49.488;9.900;2022-08-06T02:05:25;21.00;51.40
39325;DHT22;25037;49.488;9.900;2022-08-06T02:07:52;21.00;51.50
39325;DHT22;25037;49.488;9.900;2022-08-06T02:10:21;20.90;51.50
39325;DHT22;25037;49.488;9.900;2022-08-06T02:12:48;20.90;51.60
39325;DHT22;25037;49.488;9.900;2022-08-06T02:15:21;20.90;51.60
39325;DHT22;25037;49.488;9.900;2022-08-06T02:17:50;20.80;51.80
39325;DHT22;25037;49.488;9.900;2022-08-06T02:20:29;20.80;51.80
39325;DHT22;25037;49.488;9.900;2022-08-06T02:22:55;20.80;51.90
39325;DHT22;25037;49.488;9.900;2022-08-06T02:25:22;20.70;52.00
39325;DHT22;25037;49.488;9.900;2022-08-06T02:27:50;20.70;52.10
39325;DHT22;25037;49.488;9.900;2022-08-06T02:30:17;20.70;52.20
39325;DHT22;25037;49.488;9.900;2022-08-06T02:32:43;20.70;52.30
39325;DHT22;25037;49.488;9.900;2022-08-06T02:35:10;20.70;52.30
39325;DHT22;25037;49.488;9.900;2022-08-06T02:37:48;20.50;52.40
39325;DHT22;25037;49.488;9.900;2022-08-06T02:40:22;20.50;52.70
39325;DHT22;25037;49.488;9.900;2022-08-06T02:45:25;20.40;52.70
39325;DHT22;25037;49.488;9.900;2022-08-06T02:48:12;20.40;52.80
39325;DHT22;25037;49.488;9.900;2022-08-06T02:50:43;20.30;52.90
39325;DHT22;25037;49.488;9.900;2022-08-06T02:53:15;20.30;53.10
39325;DHT22;25037;49.488;9.900;2022-08-06T02:55:44;20.20;53.20
39325;DHT22;25037;49.488;9.900;2022-08-06T02:58:15;20.10;53.30
39325;DHT22;25037;49.488;9.900;2022-08-06T03:00:44;20.10;53.40
39325;DHT22;25037;49.488;9.900;2022-08-06T03:03:13;20.10;53.40
39325;DHT22;25037;49.488;9.900;2022-08-06T03:05:42;20.00;53.60
39325;DHT22;25037;49.488;9.900;2022-08-06T03:08:10;19.90;53.70
39325;DHT22;25037;49.488;9.900;2022-08-06T03:10:36;19.90;53.70
39325;DHT22;25037;49.488;9.900;2022-08-06T03:13:03;19.80;54.00
39325;DHT22;25037;49.488;9.900;2022-08-06T03:15:32;19.80;54.20
39325;DHT22;25037;49.488;9.900;2022-08-06T03:17:58;19.70;54.30
39325;DHT22;25037;49.488;9.900;2022-08-06T03:20:26;19.70;54.50
39325;DHT22;25037;49.488;9.900;2022-08-06T03:22:56;19.70;54.60
39325;DHT22;25037;49.488;9.900;2022-08-06T03:25:25;19.60;54.80
39325;DHT22;25037;49.488;9.900;2022-08-06T03:27:52;19.50;54.80
39325;DHT22;25037;49.488;9.900;2022-08-06T03:30:19;19.50;55.00
39325;DHT22;25037;49.488;9.900;2022-08-06T03:32:46;19.50;55.10
39325;DHT22;25037;49.488;9.900;2022-08-06T03:35:13;19.40;55.10
39325;DHT22;25037;49.488;9.900;2022-08-06T03:37:40;19.40;55.30
39325;DHT22;25037;49.488;9.900;2022-08-06T03:40:09;19.40;55.40
39325;DHT22;25037;49.488;9.900;2022-08-06T03:42:34;19.30;55.60
39325;DHT22;25037;49.488;9.900;2022-08-06T03:45:00;19.30;55.70
39325;DHT22;25037;49.488;9.900;2022-08-06T03:47:30;19.30;55.80
39325;DHT22;25037;49.488;9.900;2022-08-06T03:50:15;19.20;56.10
39325;DHT22;25037;49.488;9.900;2022-08-06T03:52:44;19.20;56.20
39325;DHT22;25037;49.488;9.900;2022-08-06T03:55:16;19.10;56.30
39325;DHT22;25037;49.488;9.900;2022-08-06T03:57:49;19.10;56.50
39325;DHT22;25037;49.488;9.900;2022-08-06T04:00:19;19.10;56.70
39325;DHT22;25037;49.488;9.900;2022-08-06T04:02:47;19.00;56.70
39325;DHT22;25037;49.488;9.900;2022-08-06T04:05:19;19.00;56.80
39325;DHT22;25037;49.488;9.900;2022-08-06T04:07:46;19.00;56.80
39325;DHT22;25037;49.488;9.900;2022-08-06T04:10:12;19.00;56.80
39325;DHT22;25037;49.488;9.900;2022-08-06T04:12:38;19.00;56.90
39325;DHT22;25037;49.488;9.900;2022-08-06T04:15:05;19.00;56.90
39325;DHT22;25037;49.488;9.900;2022-08-06T04:17:31;19.10;56.90
39325;DHT22;25037;49.488;9.900;2022-08-06T04:19:58;19.10;56.90
39325;DHT22;25037;49.488;9.900;2022-08-06T04:22:24;19.10;56.90
39325;DHT22;25037;49.488;9.900;2022-08-06T04:24:50;19.20;56.80
39325;DHT22;25037;49.488;9.900;2022-08-06T04:27:16;19.20;56.70
39325;DHT22;25037;49.488;9.900;2022-08-06T04:29:45;19.30;56.70
39325;DHT22;25037;49.488;9.900;2022-08-06T04:32:14;19.30;56.60
39325;DHT22;25037;49.488;9.900;2022-08-06T04:34:40;19.30;56.70
39325;DHT22;25037;49.488;9.900;2022-08-06T04:37:07;19.30;56.60
39325;DHT22;25037;49.488;9.900;2022-08-06T04:39:33;19.30;56.60
39325;DHT22;25037;49.488;9.900;2022-08-06T04:42:01;19.40;56.50
39325;DHT22;25037;49.488;9.900;2022-08-06T04:44:27;19.50;56.50
39325;DHT22;25037;49.488;9.900;2022-08-06T04:46:54;19.70;56.30
39325;DHT22;25037;49.488;9.900;2022-08-06T04:49:19;20.00;55.60
39325;DHT22;25037;49.488;9.900;2022-08-06T04:51:46;19.90;55.40
39325;DHT22;25037;49.488;9.900;2022-08-06T04:54:13;19.90;55.30
39325;DHT22;25037;49.488;9.900;2022-08-06T04:56:39;19.80;55.20
39325;DHT22;25037;49.488;9.900;2022-08-06T04:59:05;19.80;55.10
39325;DHT22;25037;49.488;9.900;2022-08-06T05:01:31;19.80;55.00
39325;DHT22;25037;49.488;9.900;2022-08-06T05:03:56;19.90;54.90
39325;DHT22;25037;49.488;9.900;2022-08-06T05:06:29;19.90;54.80
39325;DHT22;25037;49.488;9.900;2022-08-06T05:09:02;20.00;54.80
39325;DHT22;25037;49.488;9.900;2022-08-06T05:11:32;20.10;54.70
39325;DHT22;25037;49.488;9.900;2022-08-06T05:16:46;20.30;54.40
39325;DHT22;25037;49.488;9.900;2022-08-06T05:19:31;20.50;54.10
39325;DHT22;25037;49.488;9.900;2022-08-06T05:21:59;20.60;53.80
39325;DHT22;25037;49.488;9.900;2022-08-06T05:24:25;20.70;53.30
39325;DHT22;25037;49.488;9.900;2022-08-06T05:26:52;20.80;52.60
39325;DHT22;25037;49.488;9.900;2022-08-06T05:29:19;21.00;52.10
39325;DHT22;25037;49.488;9.900;2022-08-06T05:31:45;21.20;51.60
39325;DHT22;25037;49.488;9.900;2022-08-06T05:34:12;21.20;51.50
39325;DHT22;25037;49.488;9.900;2022-08-06T05:36:39;21.70;50.70
39325;DHT22;25037;49.488;9.900;2022-08-06T05:39:05;21.80;50.20
39325;DHT22;25037;49.488;9.900;2022-08-06T05:41:30;21.90;49.80
39325;DHT22;25037;49.488;9.900;2022-08-06T05:43:56;22.10;49.20
39325;DHT22;25037;49.488;9.900;2022-08-06T05:46:27;22.90;47.20
39325;DHT22;25037;49.488;9.900;2022-08-06T05:50:02;23.00;46.60
39325;DHT22;25037;49.488;9.900;2022-08-06T05:52:29;22.70;46.90
39325;DHT22;25037;49.488;9.900;2022-08-06T05:55:03;23.20;46.30
39325;DHT22;25037;49.488;9.900;2022-08-06T05:57:53;23.80;45.30
39325;DHT22;25037;49.488;9.900;2022-08-06T06:00:21;24.60;43.90
39325;DHT22;25037;49.488;9.900;2022-08-06T06:02:49;25.40;42.90
39325;DHT22;25037;49.488;9.900;2022-08-06T06:05:15;25.90;41.90
39325;DHT22;25037;49.488;9.900;2022-08-06T06:07:41;28.40;37.90
39325;DHT22;25037;49.488;9.900;2022-08-06T06:10:08;30.50;34.60
39325;DHT22;25037;49.488;9.900;2022-08-06T06:12:34;32.20;32.20
39325;DHT22;25037;49.488;9.900;2022-08-06T06:15:04;33.10;31.00
39325;DHT22;25037;49.488;9.900;2022-08-06T06:20:51;31.50;32.20
39325;DHT22;25037;49.488;9.900;2022-08-06T06:25:49;30.40;33.20
39325;DHT22;25037;49.488;9.900;2022-08-06T06:28:27;29.50;34.20
39325;DHT22;25037;49.488;9.900;2022-08-06T06:33:50;28.40;35.30
39325;DHT22;25037;49.488;9.900;2022-08-06T06:36:49;27.80;36.00
39325;DHT22;25037;49.488;9.900;2022-08-06T06:39:28;27.40;36.90
39325;DHT22;25037;49.488;9.900;2022-08-06T06:42:10;27.30;37.10
39325;DHT22;25037;49.488;9.900;2022-08-06T06:44:40;27.30;37.00
39325;DHT22;25037;49.488;9.900;2022-08-06T06:49:56;26.70;37.70
39325;DHT22;25037;49.488;9.900;2022-08-06T06:52:38;26.50;38.10
39325;DHT22;25037;49.488;9.900;2022-08-06T06:57:43;26.40;38.10
39325;DHT22;25037;49.488;9.900;2022-08-06T07:00:11;26.20;38.60
39325;DHT22;25037;49.488;9.900;2022-08-06T07:02:39;26.00;38.80
39325;DHT22;25037;49.488;9.900;2022-08-06T07:05:08;25.90;38.60
39325;DHT22;25037;49.488;9.900;2022-08-06T07:07:37;25.60;38.80
39325;DHT22;25037;49.488;9.900;2022-08-06T07:10:04;25.50;38.80
39325;DHT22;25037;49.488;9.900;2022-08-06T07:12:32;25.40;39.00
39325;DHT22;25037;49.488;9.900;2022-08-06T07:14:59;25.40;39.00
39325;DHT22;25037;49.488;9.900;2022-08-06T07:17:25;25.50;38.60
39325;DHT22;25037;49.488;9.900;2022-08-06T07:19:55;25.60;37.80
39325;DHT22;25037;49.488;9.900;2022-08-06T07:22:23;25.40;37.60
39325;DHT22;25037;49.488;9.900;2022-08-06T07:24:52;25.20;37.70
39325;DHT22;25037;49.488;9.900;2022-08-06T07:27:19;25.10;37.70
39325;DHT22;25037;49.488;9.900;2022-08-06T07:29:45;25.10;37.60
39325;DHT22;25037;49.488;9.900;2022-08-06T07:32:11;25.30;37.40
39325;DHT22;25037;49.488;9.900;2022-08-06T07:34:38;25.40;37.10
39325;DHT22;25037;49.488;9.900;2022-08-06T07:37:05;25.30;36.70
39325;DHT22;25037;49.488;9.900;2022-08-06T07:39:38;25.20;36.80
39325;DHT22;25037;49.488;9.900;2022-08-06T07:42:09;25.00;37.00
39325;DHT22;25037;49.488;9.900;2022-08-06T07:44:37;24.80;37.00
39325;DHT22;25037;49.488;9.900;2022-08-06T07:47:05;24.70;36.90
39325;DHT22;25037;49.488;9.900;2022-08-06T07:49:41;24.70;36.90
39325;DHT22;25037;49.488;9.900;2022-08-06T07:52:09;24.80;36.60
39325;DHT22;25037;49.488;9.900;2022-08-06T07:54:37;24.70;36.80
39325;DHT22;25037;49.488;9.900;2022-08-06T07:57:04;24.60;36.80
39325;DHT22;25037;49.488;9.900;2022-08-06T07:59:31;24.60;36.60
39325;DHT22;25037;49.488;9.900;2022-08-06T08:01:59;24.80;36.40
39325;DHT22;25037;49.488;9.900;2022-08-06T08:04:25;24.80;36.00
39325;DHT22;25037;49.488;9.900;2022-08-06T08:07:10;24.80;36.20
39325;DHT22;25037;49.488;9.900;2022-08-06T08:09:36;24.70;36.20
39325;DHT22;25037;49.488;9.900;2022-08-06T08:12:03;24.50;36.00
39325;DHT22;25037;49.488;9.900;2022-08-06T08:14:31;24.40;36.40
39325;DHT22;25037;49.488;9.900;2022-08-06T08:16:57;24.30;36.50
39325;DHT22;25037;49.488;9.900;2022-08-06T08:19:25;24.30;36.60
39325;DHT22;25037;49.488;9.900;2022-08-06T08:22:05;24.20;36.80
39325;DHT22;25037;49.488;9.900;2022-08-06T08:24:32;24.30;36.70
39325;DHT22;25037;49.488;9.900;2022-08-06T08:26:59;24.30;36.60
39325;DHT22;25037;49.488;9.900;2022-08-06T08:29:25;24.40;36.80
39325;DHT22;25037;49.488;9.900;2022-08-06T08:31:50;24.50;36.40
39325;DHT22;25037;49.488;9.900;2022-08-06T08:34:16;24.60;36.40
39325;DHT22;25037;49.488;9.900;2022-08-06T08:36:42;24.70;36.40
39325;DHT22;25037;49.488;9.900;2022-08-06T08:39:08;25.00;36.10
39325;DHT22;25037;49.488;9.900;2022-08-06T08:41:52;25.30;35.80
39325;DHT22;25037;49.488;9.900;2022-08-06T08:44:23;25.60;35.50
39325;DHT22;25037;49.488;9.900;2022-08-06T08:46:50;25.80;34.60
39325;DHT22;25037;49.488;9.900;2022-08-06T08:49:20;25.80;34.60
39325;DHT22;25037;49.488;9.900;2022-08-06T08:51:46;25.90;34.50
39325;DHT22;25037;49.488;9.900;2022-08-06T08:54:15;26.00;34.30
39325;DHT22;25037;49.488;9.900;2022-08-06T08:56:41;26.10;33.90
39325;DHT22;25037;49.488;9.900;2022-08-06T08:59:08;26.20;33.90
39325;DHT22;25037;49.488;9.900;2022-08-06T09:01:34;26.30;33.90
39325;DHT22;25037;49.488;9.900;2022-08-06T09:04:04;26.40;33.50
39325;DHT22;25037;49.488;9.900;2022-08-06T09:06:30;26.40;33.50
39325;DHT22;25037;49.488;9.900;2022-08-06T09:09:00;26.40;33.50
39325;DHT22;25037;49.488;9.900;2022-08-06T09:11:29;26.40;33.40
39325;DHT22;25037;49.488;9.900;2022-08-06T09:13:55;26.60;33.40
39325;DHT22;25037;49.488;9.900;2022-08-06T09:16:21;26.60;33.20
39325;DHT22;25037;49.488;9.900;2022-08-06T09:18:47;26.70;33.10
39325;DHT22;25037;49.488;9.900;2022-08-06T09:21:12;26.70;33.00
39325;DHT22;25037;49.488;9.900;2022-08-06T09:23:38;26.90;33.00
39325;DHT22;25037;49.488;9.900;2022-08-06T09:26:05;27.00;32.80
39325;DHT22;25037;49.488;9.900;2022-08-06T09:28:42;27.20;32.80
39325;DHT22;25037;49.488;9.900;2022-08-06T09:31:19;27.30;32.50
39325;DHT22;25037;49.488;9.900;2022-08-06T09:34:00;27.30;32.30
39325;DHT22;25037;49.488;9.900;2022-08-06T09:36:26;27.50;32.40
39325;DHT22;25037;49.488;9.900;2022-08-06T09:38:55;27.70;32.00
39325;DHT22;25037;49.488;9.900;2022-08-06T09:41:24;27.70;31.90
39325;DHT22;25037;49.488;9.900;2022-08-06T09:43:52;27.80;31.60
39325;DHT22;25037;49.488;9.900;2022-08-06T09:46:34;27.90;31.60
39325;DHT22;25037;49.488;9.900;2022-08-06T09:49:01;28.00;31.40
39325;DHT22;25037;49.488;9.900;2022-08-06T09:51:27;28.00;31.20
39325;DHT22;25037;49.488;9.900;2022-08-06T09:53:56;28.00;31.20
39325;DHT22;25037;49.488;9.900;2022-08-06T09:56:22;28.10;31.10
39325;DHT22;25037;49.488;9.900;2022-08-06T09:58:48;28.10;30.90
39325;DHT22;25037;49.488;9.900;2022-08-06T10:01:19;28.10;30.90
39325;DHT22;25037;49.488;9.900;2022-08-06T10:03:45;28.20;30.80
39325;DHT22;25037;49.488;9.900;2022-08-06T10:06:14;28.30;30.90
39325;DHT22;25037;49.488;9.900;2022-08-06T10:08:40;28.30;30.80
39325;DHT22;25037;49.488;9.900;2022-08-06T10:11:07;28.30;30.90
39325;DHT22;25037;49.488;9.900;2022-08-06T10:13:33;28.40;30.80
39325;DHT22;25037;49.488;9.900;2022-08-06T10:16:13;28.60;30.40
39325;DHT22;25037;49.488;9.900;2022-08-06T10:18:41;28.70;30.30
39325;DHT22;25037;49.488;9.900;2022-08-06T10:21:13;28.60;30.10
39325;DHT22;25037;49.488;9.900;2022-08-06T10:23:40;28.70;30.30
39325;DHT22;25037;49.488;9.900;2022-08-06T10:26:10;28.70;30.00
39325;DHT22;25037;49.488;9.900;2022-08-06T10:28:38;28.70;29.90
39325;DHT22;25037;49.488;9.900;2022-08-06T10:31:06;28.60;29.30
39325;DHT22;25037;49.488;9.900;2022-08-06T10:33:36;28.20;29.60
39325;DHT22;25037;49.488;9.900;2022-08-06T10:36:09;27.90;30.30
39325;DHT22;25037;49.488;9.900;2022-08-06T10:38:35;27.90;30.50
39325;DHT22;25037;49.488;9.900;2022-08-06T10:41:07;28.00;30.40
39325;DHT22;25037;49.488;9.900;2022-08-06T10:43:35;28.00;30.40
39325;DHT22;25037;49.488;9.900;2022-08-06T10:46:07;28.20;30.30
39325;DHT22;25037;49.488;9.900;2022-08-06T10:48:35;28.40;30.10
39325;DHT22;25037;49.488;9.900;2022-08-06T10:51:01;28.50;30.00
39325;DHT22;25037;49.488;9.900;2022-08-06T10:53:29;28.50;29.70
39325;DHT22;25037;49.488;9.900;2022-08-06T10:55:55;28.40;29.80
39325;DHT22;25037;49.488;9.900;2022-08-06T10:58:21;28.50;29.80
39325;DHT22;25037;49.488;9.900;2022-08-06T11:00:48;28.60;29.70
39325;DHT22;25037;49.488;9.900;2022-08-06T11:03:19;28.60;29.40
39325;DHT22;25037;49.488;9.900;2022-08-06T11:06:14;28.60;29.00
39325;DHT22;25037;49.488;9.900;2022-08-06T11:09:05;28.70;29.10
39325;DHT22;25037;49.488;9.900;2022-08-06T11:11:58;28.80;29.30
39325;DHT22;25037;49.488;9.900;2022-08-06T11:14:29;28.80;29.00
39325;DHT22;25037;49.488;9.900;2022-08-06T11:16:56;28.80;29.20
39325;DHT22;25037;49.488;9.900;2022-08-06T11:19:38;28.90;29.00
39325;DHT22;25037;49.488;9.900;2022-08-06T11:22:04;28.90;28.90
39325;DHT22;25037;49.488;9.900;2022-08-06T11:24:30;28.90;29.20
39325;DHT22;25037;49.488;9.900;2022-08-06T11:26:56;29.00;28.90
39325;DHT22;25037;49.488;9.900;2022-08-06T11:29:22;29.10;28.30
39325;DHT22;25037;49.488;9.900;2022-08-06T11:31:49;29.20;28.00
39325;DHT22;25037;49.488;9.900;2022-08-06T11:34:18;29.20;27.60
39325;DHT22;25037;49.488;9.900;2022-08-06T11:39:19;29.20;27.40
39325;DHT22;25037;49.488;9.900;2022-08-06T11:41:59;29.20;27.00
39325;DHT22;25037;49.488;9.900;2022-08-06T11:44:31;29.00;27.10
39325;DHT22;25037;49.488;9.900;2022-08-06T11:52:04;29.20;26.70
39325;DHT22;25037;49.488;9.900;2022-08-06T11:54:32;29.20;26.10
39325;DHT22;25037;49.488;9.900;2022-08-06T12:01:59;29.30;26.50
39325;DHT22;25037;49.488;9.900;2022-08-06T12:07:23;29.30;26.60
39325;DHT22;25037;49.488;9.900;2022-08-06T12:10:07;29.40;26.00
39325;DHT22;25037;49.488;9.900;2022-08-06T12:12:38;29.40;26.20
39325;DHT22;25037;49.488;9.900;2022-08-06T12:20:36;29.60;25.40
39325;DHT22;25037;49.488;9.900;2022-08-06T12:23:05;29.50;25.50
39325;DHT22;25037;49.488;9.900;2022-08-06T12:25:41;29.40;25.70
39325;DHT22;25037;49.488;9.900;2022-08-06T12:28:08;29.30;25.70
39325;DHT22;25037;49.488;9.900;2022-08-06T12:30:45;29.30;25.80
39325;DHT22;25037;49.488;9.900;2022-08-06T12:33:10;29.30;25.90
39325;DHT22;25037;49.488;9.900;2022-08-06T12:35:47;29.30;26.00
39325;DHT22;25037;49.488;9.900;2022-08-06T12:38:13;29.40;25.90
39325;DHT22;25037;49.488;9.900;2022-08-06T12:40:39;29.50;25.90
39325;DHT22;25037;49.488;9.900;2022-08-06T12:45:32;29.40;25.50
39325;DHT22;25037;49.488;9.900;2022-08-06T12:47:58;29.30;25.50
39325;DHT22;25037;49.488;9.900;2022-08-06T12:50:25;29.30;25.20
39325;DHT22;25037;49.488;9.900;2022-08-06T12:55:44;29.40;24.60
39325;DHT22;25037;49.488;9.900;2022-08-06T12:58:11;29.40;24.30
39325;DHT22;25037;49.488;9.900;2022-08-06T13:00:37;29.50;24.40
39325;DHT22;25037;49.488;9.900;2022-08-06T13:03:05;29.50;24.10
39325;DHT22;25037;49.488;9.900;2022-08-06T13:05:32;29.40;24.30
39325;DHT22;25037;49.488;9.900;2022-08-06T13:07:58;29.40;24.20
39325;DHT22;25037;49.488;9.900;2022-08-06T13:10:24;29.40;24.40
39325;DHT22;25037;49.488;9.900;2022-08-06T13:12:54;29.30;24.50
39325;DHT22;25037;49.488;9.900;2022-08-06T13:15:21;29.30;24.60
39325;DHT22;25037;49.488;9.900;2022-08-06T13:20:46;29.50;24.30
39325;DHT22;25037;49.488;9.900;2022-08-06T13:23:13;29.50;23.90
39325;DHT22;25037;49.488;9.900;2022-08-06T13:25:48;29.50;24.00
39325;DHT22;25037;49.488;9.900;2022-08-06T13:28:22;29.40;24.20
39325;DHT22;25037;49.488;9.900;2022-08-06T13:30:48;29.30;24.40
39325;DHT22;25037;49.488;9.900;2022-08-06T13:33:23;29.40;24.40
39325;DHT22;25037;49.488;9.900;2022-08-06T13:36:07;29.40;24.10
39325;DHT22;25037;49.488;9.900;2022-08-06T13:38:36;29.40;24.20
39325;DHT22;25037;49.488;9.900;2022-08-06T13:41:02;29.40;24.10
39325;DHT22;25037;49.488;9.900;2022-08-06T13:43:39;29.40;24.10
39325;DHT22;25037;49.488;9.900;2022-08-06T13:46:08;29.40;24.10
39325;DHT22;25037;49.488;9.900;2022-08-06T13:48:34;29.20;24.40
39325;DHT22;25037;49.488;9.900;2022-08-06T13:51:00;29.30;24.40
39325;DHT22;25037;49.488;9.900;2022-08-06T13:53:25;29.30;24.30
39325;DHT22;25037;49.488;9.900;2022-08-06T13:55:51;29.40;24.20
39325;DHT22;25037;49.488;9.900;2022-08-06T13:58:16;29.40;24.00
39325;DHT22;25037;49.488;9.900;2022-08-06T14:00:42;29.30;24.00
39325;DHT22;25037;49.488;9.900;2022-08-06T14:03:11;29.20;24.30
39325;DHT22;25037;49.488;9.900;2022-08-06T14:05:36;29.30;24.40
39325;DHT22;25037;49.488;9.900;2022-08-06T14:08:02;29.30;24.10
39325;DHT22;25037;49.488;9.900;2022-08-06T14:10:28;29.30;24.10
39325;DHT22;25037;49.488;9.900;2022-08-06T14:12:53;29.40;24.10
39325;DHT22;25037;49.488;9.900;2022-08-06T14:15:37;29.50;23.90
39325;DHT22;25037;49.488;9.900;2022-08-06T14:18:03;29.60;24.00
39325;DHT22;25037;49.488;9.900;2022-08-06T14:20:28;29.60;24.10
39325;DHT22;25037;49.488;9.900;2022-08-06T14:22:54;29.60;24.10
39325;DHT22;25037;49.488;9.900;2022-08-06T14:25:21;29.60;24.00
39325;DHT22;25037;49.488;9.900;2022-08-06T14:27:47;29.50;23.80
39325;DHT22;25037;49.488;9.900;2022-08-06T14:30:13;29.40;23.80
39325;DHT22;25037;49.488;9.900;2022-08-06T14:32:39;29.40;23.80
39325;DHT22;25037;49.488;9.900;2022-08-06T14:35:05;29.50;23.80
39325;DHT22;25037;49.488;9.900;2022-08-06T14:37:32;29.60;23.80
39325;DHT22;25037;49.488;9.900;2022-08-06T14:39:57;29.50;23.70
39325;DHT22;25037;49.488;9.900;2022-08-06T14:42:23;29.50;23.70
39325;DHT22;25037;49.488;9.900;2022-08-06T14:45:08;29.40;23.80
39325;DHT22;25037;49.488;9.900;2022-08-06T14:47:33;29.20;23.60
39325;DHT22;25037;49.488;9.900;2022-08-06T14:49:59;29.10;23.90
39325;DHT22;25037;49.488;9.900;2022-08-06T14:52:24;29.10;24.00
39325;DHT22;25037;49.488;9.900;2022-08-06T14:54:51;29.10;24.00
39325;DHT22;25037;49.488;9.900;2022-08-06T14:57:17;29.00;23.80
39325;DHT22;25037;49.488;9.900;2022-08-06T14:59:44;29.00;23.90
39325;DHT22;25037;49.488;9.900;2022-08-06T15:02:10;29.00;23.80
39325;DHT22;25037;49.488;9.900;2022-08-06T15:04:36;29.00;23.80
39325;DHT22;25037;49.488;9.900;2022-08-06T15:07:02;29.10;23.70
39325;DHT22;25037;49.488;9.900;2022-08-06T15:09:28;29.10;23.60
39325;DHT22;25037;49.488;9.900;2022-08-06T15:11:53;29.10;23.60
39325;DHT22;25037;49.488;9.900;2022-08-06T15:14:19;29.00;23.60
39325;DHT22;25037;49.488;9.900;2022-08-06T15:16:44;29.00;23.70
39325;DHT22;25037;49.488;9.900;2022-08-06T15:19:10;29.10;23.70
39325;DHT22;25037;49.488;9.900;2022-08-06T15:21:36;29.20;23.80
39325;DHT22;25037;49.488;9.900;2022-08-06T15:24:01;29.20;23.90
39325;DHT22;25037;49.488;9.900;2022-08-06T15:26:27;29.20;23.90
39325;DHT22;25037;49.488;9.900;2022-08-06T15:28:53;29.20;23.90
39325;DHT22;25037;49.488;9.900;2022-08-06T15:31:19;29.20;23.80
39325;DHT22;25037;49.488;9.900;2022-08-06T15:33:45;29.10;23.70
39325;DHT22;25037;49.488;9.900;2022-08-06T15:36:11;29.10;23.80
39325;DHT22;25037;49.488;9.900;2022-08-06T15:38:36;29.10;23.70
39325;DHT22;25037;49.488;9.900;2022-08-06T15:41:05;29.00;23.80
39325;DHT22;25037;49.488;9.900;2022-08-06T15:43:31;29.00;23.80
39325;DHT22;25037;49.488;9.900;2022-08-06T15:45:58;29.00;23.80
39325;DHT22;25037;49.488;9.900;2022-08-06T15:48:27;29.00;23.70
39325;DHT22;25037;49.488;9.900;2022-08-06T15:50:54;28.90;23.60
39325;DHT22;25037;49.488;9.900;2022-08-06T15:53:20;28.70;23.80
39325;DHT22;25037;49.488;9.900;2022-08-06T15:55:46;28.80;23.80
39325;DHT22;25037;49.488;9.900;2022-08-06T15:58:12;28.80;23.80
39325;DHT22;25037;49.488;9.900;2022-08-06T16:00:39;28.90;23.80
39325;DHT22;25037;49.488;9.900;2022-08-06T16:03:07;28.90;23.80
39325;DHT22;25037;49.488;9.900;2022-08-06T16:05:35;29.00;23.70
39325;DHT22;25037;49.488;9.900;2022-08-06T16:08:01;28.90;23.50
39325;DHT22;25037;49.488;9.900;2022-08-06T16:10:27;29.00;23.30
39325;DHT22;25037;49.488;9.900;2022-08-06T16:12:53;28.90;23.20
39325;DHT22;25037;49.488;9.900;2022-08-06T16:15:18;28.80;23.30
39325;DHT22;25037;49.488;9.900;2022-08-06T16:17:44;28.70;23.30
39325;DHT22;25037;49.488;9.900;2022-08-06T16:20:10;28.70;23.50
39325;DHT22;25037;49.488;9.900;2022-08-06T16:22:36;28.60;23.50
39325;DHT22;25037;49.488;9.900;2022-08-06T16:25:01;28.60;23.60
39325;DHT22;25037;49.488;9.900;2022-08-06T16:27:27;28.70;23.60
39325;DHT22;25037;49.488;9.900;2022-08-06T16:29:52;28.70;23.60
39325;DHT22;25037;49.488;9.900;2022-08-06T16:32:18;28.70;23.60
39325;DHT22;25037;49.488;9.900;2022-08-06T16:34:44;28.70;23.60
39325;DHT22;25037;49.488;9.900;2022-08-06T16:37:10;28.60;23.60
39325;DHT22;25037;49.488;9.900;2022-08-06T16:39:35;28.60;23.50